sensor_id;sensor_type;location;lat;lon;timestamp;P1;durP1;ratioP1;P2;durP2;ratioP2
13386;SDS011;6763;48.524;9.044;2022-10-16T00:00:32;1.05;;;0.60;;
13386;SDS011;6763;48.524;9.044;2022-10-16T00:03:00;0.45;;;0.45;;
13386;SDS011;6763;48.524;9.044;2022-10-16T00:05:26;0.50;;;0.50;;
13386;SDS011;6763;48.524;9.044;2022-10-16T00:07:52;0.43;;;0.43;;
13386;SDS011;6763;48.524;9.044;2022-10-16T00:10:18;0.63;;;0.47;;
13386;SDS011;6763;48.524;9.044;2022-10-16T00:12:44;7.43;;;0.98;;
13386;SDS011;6763;48.524;9.044;2022-10-16T00:15:10;2.50;;;0.40;;
13386;SDS011;6763;48.524;9.044;2022-10-16T00:17:35;0.50;;;0.50;;
13386;SDS011;6763;48.524;9.044;2022-10-16T00:20:01;0.52;;;0.52;;
13386;SDS011;6763;48.524;9.044;2022-10-16T00:22:27;0.55;;;0.52;;
13386;SDS011;6763;48.524;9.044;2022-10-16T00:24:53;0.45;;;0.45;;
13386;SDS011;6763;48.524;9.044;2022-10-16T00:27:19;0.65;;;0.60;;
13386;SDS011;6763;48.524;9.044;2022-10-16T00:29:48;0.70;;;0.50;;
13386;SDS011;6763;48.524;9.044;2022-10-16T00:32:16;9.50;;;0.90;;
13386;SDS011;6763;48.524;9.044;2022-10-16T00:34:42;1.67;;;0.60;;
13386;SDS011;6763;48.524;9.044;2022-10-16T00:37:08;1.25;;;0.90;;
13386;SDS011;6763;48.524;9.044;2022-10-16T00:39:34;1.83;;;0.98;;
13386;SDS011;6763;48.524;9.044;2022-10-16T00:42:00;0.82;;;0.82;;
13386;SDS011;6763;48.524;9.044;2022-10-16T00:47:23;0.50;;;0.50;;
13386;SDS011;6763;48.524;9.044;2022-10-16T00:52:34;0.77;;;0.77;;
13386;SDS011;6763;48.524;9.044;2022-10-16T00:55:02;4.18;;;0.90;;
13386;SDS011;6763;48.524;9.044;2022-10-16T00:57:29;0.68;;;0.63;;
13386;SDS011;6763;48.524;9.044;2022-10-16T00:59:55;0.70;;;0.70;;
13386;SDS011;6763;48.524;9.044;2022-10-16T01:02:21;0.52;;;0.52;;
13386;SDS011;6763;48.524;9.044;2022-10-16T01:04:48;0.50;;;0.50;;
13386;SDS011;6763;48.524;9.044;2022-10-16T01:07:19;2.95;;;0.73;;
13386;SDS011;6763;48.524;9.044;2022-10-16T01:15:02;4.75;;;0.80;;
13386;SDS011;6763;48.524;9.044;2022-10-16T01:17:59;0.60;;;0.60;;
13386;SDS011;6763;48.524;9.044;2022-10-16T01:20:27;0.60;;;0.60;;
13386;SDS011;6763;48.524;9.044;2022-10-16T01:25:46;0.60;;;0.60;;
13386;SDS011;6763;48.524;9.044;2022-10-16T01:28:14;0.70;;;0.70;;
13386;SDS011;6763;48.524;9.044;2022-10-16T01:30:43;0.82;;;0.82;;
13386;SDS011;6763;48.524;9.044;2022-10-16T01:36:11;1.13;;;0.77;;
13386;SDS011;6763;48.524;9.044;2022-10-16T01:38:42;1.02;;;0.60;;
13386;SDS011;6763;48.524;9.044;2022-10-16T01:41:15;0.90;;;0.77;;
13386;SDS011;6763;48.524;9.044;2022-10-16T01:43:46;0.68;;;0.60;;
13386;SDS011;6763;48.524;9.044;2022-10-16T01:46:18;1.00;;;0.75;;
13386;SDS011;6763;48.524;9.044;2022-10-16T01:48:46;0.60;;;0.60;;
13386;SDS011;6763;48.524;9.044;2022-10-16T01:51:13;1.17;;;0.90;;
13386;SDS011;6763;48.524;9.044;2022-10-16T01:53:41;1.20;;;0.90;;
13386;SDS011;6763;48.524;9.044;2022-10-16T01:56:11;0.60;;;0.60;;
13386;SDS011;6763;48.524;9.044;2022-10-16T01:58:42;0.60;;;0.60;;
13386;SDS011;6763;48.524;9.044;2022-10-16T02:01:21;0.50;;;0.50;;
13386;SDS011;6763;48.524;9.044;2022-10-16T02:03:49;0.70;;;0.60;;
13386;SDS011;6763;48.524;9.044;2022-10-16T02:06:16;0.80;;;0.80;;
13386;SDS011;6763;48.524;9.044;2022-10-16T02:08:42;3.00;;;1.10;;
13386;SDS011;6763;48.524;9.044;2022-10-16T02:11:09;0.70;;;0.65;;
13386;SDS011;6763;48.524;9.044;2022-10-16T02:16:12;0.77;;;0.77;;
13386;SDS011;6763;48.524;9.044;2022-10-16T02:18:39;0.50;;;0.50;;
13386;SDS011;6763;48.524;9.044;2022-10-16T02:21:19;1.58;;;0.95;;
13386;SDS011;6763;48.524;9.044;2022-10-16T02:23:53;0.50;;;0.50;;
13386;SDS011;6763;48.524;9.044;2022-10-16T02:29:07;0.80;;;0.80;;
13386;SDS011;6763;48.524;9.044;2022-10-16T02:31:36;0.50;;;0.50;;
13386;SDS011;6763;48.524;9.044;2022-10-16T02:34:06;0.63;;;0.63;;
13386;SDS011;6763;48.524;9.044;2022-10-16T02:36:36;0.50;;;0.50;;
13386;SDS011;6763;48.524;9.044;2022-10-16T02:39:03;0.65;;;0.65;;
13386;SDS011;6763;48.524;9.044;2022-10-16T02:41:30;0.95;;;0.60;;
13386;SDS011;6763;48.524;9.044;2022-10-16T02:43:56;1.20;;;0.93;;
13386;SDS011;6763;48.524;9.044;2022-10-16T02:46:21;0.80;;;0.60;;
13386;SDS011;6763;48.524;9.044;2022-10-16T02:48:47;1.90;;;0.70;;
13386;SDS011;6763;48.524;9.044;2022-10-16T02:51:12;0.82;;;0.80;;
13386;SDS011;6763;48.524;9.044;2022-10-16T02:53:37;0.70;;;0.70;;
13386;SDS011;6763;48.524;9.044;2022-10-16T02:56:03;0.82;;;0.63;;
13386;SDS011;6763;48.524;9.044;2022-10-16T02:58:28;0.95;;;0.52;;
13386;SDS011;6763;48.524;9.044;2022-10-16T03:00:54;0.63;;;0.63;;
13386;SDS011;6763;48.524;9.044;2022-10-16T03:03:20;0.70;;;0.70;;
13386;SDS011;6763;48.524;9.044;2022-10-16T03:05:46;0.63;;;0.63;;
13386;SDS011;6763;48.524;9.044;2022-10-16T03:08:12;0.55;;;0.55;;
13386;SDS011;6763;48.524;9.044;2022-10-16T03:10:41;0.88;;;0.70;;
13386;SDS011;6763;48.524;9.044;2022-10-16T03:13:06;0.55;;;0.55;;
13386;SDS011;6763;48.524;9.044;2022-10-16T03:15:31;0.65;;;0.65;;
13386;SDS011;6763;48.524;9.044;2022-10-16T03:17:57;0.60;;;0.60;;
13386;SDS011;6763;48.524;9.044;2022-10-16T03:20:23;0.57;;;0.57;;
13386;SDS011;6763;48.524;9.044;2022-10-16T03:22:49;0.75;;;0.75;;
13386;SDS011;6763;48.524;9.044;2022-10-16T03:25:15;2.65;;;0.95;;
13386;SDS011;6763;48.524;9.044;2022-10-16T03:27:40;0.82;;;0.70;;
13386;SDS011;6763;48.524;9.044;2022-10-16T03:30:06;0.70;;;0.70;;
13386;SDS011;6763;48.524;9.044;2022-10-16T03:32:32;0.60;;;0.60;;
13386;SDS011;6763;48.524;9.044;2022-10-16T03:34:57;0.60;;;0.60;;
13386;SDS011;6763;48.524;9.044;2022-10-16T03:37:23;0.50;;;0.50;;
13386;SDS011;6763;48.524;9.044;2022-10-16T03:39:49;0.73;;;0.73;;
13386;SDS011;6763;48.524;9.044;2022-10-16T03:42:14;0.50;;;0.50;;
13386;SDS011;6763;48.524;9.044;2022-10-16T03:44:40;0.55;;;0.55;;
13386;SDS011;6763;48.524;9.044;2022-10-16T03:47:05;0.40;;;0.40;;
13386;SDS011;6763;48.524;9.044;2022-10-16T03:49:30;0.70;;;0.70;;
13386;SDS011;6763;48.524;9.044;2022-10-16T03:51:56;0.60;;;0.60;;
13386;SDS011;6763;48.524;9.044;2022-10-16T03:54:21;0.60;;;0.60;;
13386;SDS011;6763;48.524;9.044;2022-10-16T03:56:47;0.98;;;0.60;;
13386;SDS011;6763;48.524;9.044;2022-10-16T03:59:12;0.70;;;0.70;;
13386;SDS011;6763;48.524;9.044;2022-10-16T04:01:38;0.60;;;0.60;;
13386;SDS011;6763;48.524;9.044;2022-10-16T04:04:04;0.60;;;0.57;;
13386;SDS011;6763;48.524;9.044;2022-10-16T04:06:29;0.45;;;0.45;;
13386;SDS011;6763;48.524;9.044;2022-10-16T04:08:54;1.67;;;0.70;;
13386;SDS011;6763;48.524;9.044;2022-10-16T04:11:20;0.75;;;0.40;;
13386;SDS011;6763;48.524;9.044;2022-10-16T04:13:45;0.50;;;0.50;;
13386;SDS011;6763;48.524;9.044;2022-10-16T04:16:10;0.60;;;0.60;;
13386;SDS011;6763;48.524;9.044;2022-10-16T04:18:36;0.50;;;0.50;;
13386;SDS011;6763;48.524;9.044;2022-10-16T04:21:02;0.60;;;0.60;;
13386;SDS011;6763;48.524;9.044;2022-10-16T04:23:28;3.45;;;0.60;;
13386;SDS011;6763;48.524;9.044;2022-10-16T04:25:53;0.60;;;0.60;;
13386;SDS011;6763;48.524;9.044;2022-10-16T04:28:19;0.45;;;0.30;;
13386;SDS011;6763;48.524;9.044;2022-10-16T04:30:45;0.88;;;0.50;;
13386;SDS011;6763;48.524;9.044;2022-10-16T04:33:10;0.57;;;0.57;;
13386;SDS011;6763;48.524;9.044;2022-10-16T04:35:36;0.50;;;0.50;;
13386;SDS011;6763;48.524;9.044;2022-10-16T04:38:02;0.40;;;0.40;;
13386;SDS011;6763;48.524;9.044;2022-10-16T04:40:28;0.40;;;0.40;;
13386;SDS011;6763;48.524;9.044;2022-10-16T04:42:54;0.70;;;0.70;;
13386;SDS011;6763;48.524;9.044;2022-10-16T04:45:19;1.05;;;0.65;;
13386;SDS011;6763;48.524;9.044;2022-10-16T04:47:44;0.70;;;0.63;;
13386;SDS011;6763;48.524;9.044;2022-10-16T04:50:10;0.43;;;0.43;;
13386;SDS011;6763;48.524;9.044;2022-10-16T04:52:35;1.25;;;0.80;;
13386;SDS011;6763;48.524;9.044;2022-10-16T04:55:01;0.47;;;0.47;;
13386;SDS011;6763;48.524;9.044;2022-10-16T04:57:28;0.70;;;0.68;;
13386;SDS011;6763;48.524;9.044;2022-10-16T04:59:54;1.75;;;0.73;;
13386;SDS011;6763;48.524;9.044;2022-10-16T05:02:19;0.80;;;0.80;;
13386;SDS011;6763;48.524;9.044;2022-10-16T05:04:49;2.33;;;0.70;;
13386;SDS011;6763;48.524;9.044;2022-10-16T05:07:21;0.77;;;0.77;;
13386;SDS011;6763;48.524;9.044;2022-10-16T05:09:48;0.50;;;0.50;;
13386;SDS011;6763;48.524;9.044;2022-10-16T05:12:18;1.38;;;0.52;;
13386;SDS011;6763;48.524;9.044;2022-10-16T05:14:43;0.50;;;0.50;;
13386;SDS011;6763;48.524;9.044;2022-10-16T05:17:09;3.63;;;0.52;;
13386;SDS011;6763;48.524;9.044;2022-10-16T05:19:34;0.30;;;0.30;;
13386;SDS011;6763;48.524;9.044;2022-10-16T05:22:00;0.50;;;0.50;;
13386;SDS011;6763;48.524;9.044;2022-10-16T05:24:25;0.30;;;0.30;;
13386;SDS011;6763;48.524;9.044;2022-10-16T05:26:51;0.45;;;0.45;;
13386;SDS011;6763;48.524;9.044;2022-10-16T05:29:17;1.35;;;0.50;;
13386;SDS011;6763;48.524;9.044;2022-10-16T05:31:42;0.40;;;0.40;;
13386;SDS011;6763;48.524;9.044;2022-10-16T05:34:09;0.73;;;0.40;;
13386;SDS011;6763;48.524;9.044;2022-10-16T05:36:34;0.40;;;0.40;;
13386;SDS011;6763;48.524;9.044;2022-10-16T05:39:00;0.38;;;0.38;;
13386;SDS011;6763;48.524;9.044;2022-10-16T05:41:25;0.40;;;0.40;;
13386;SDS011;6763;48.524;9.044;2022-10-16T05:43:51;0.30;;;0.30;;
13386;SDS011;6763;48.524;9.044;2022-10-16T05:46:17;0.40;;;0.40;;
13386;SDS011;6763;48.524;9.044;2022-10-16T05:48:43;0.45;;;0.45;;
13386;SDS011;6763;48.524;9.044;2022-10-16T05:51:12;0.40;;;0.40;;
13386;SDS011;6763;48.524;9.044;2022-10-16T05:53:39;0.40;;;0.40;;
13386;SDS011;6763;48.524;9.044;2022-10-16T05:56:05;0.80;;;0.70;;
13386;SDS011;6763;48.524;9.044;2022-10-16T05:58:34;0.40;;;0.40;;
13386;SDS011;6763;48.524;9.044;2022-10-16T06:01:02;0.40;;;0.40;;
13386;SDS011;6763;48.524;9.044;2022-10-16T06:03:29;0.30;;;0.30;;
13386;SDS011;6763;48.524;9.044;2022-10-16T06:05:55;0.77;;;0.52;;
13386;SDS011;6763;48.524;9.044;2022-10-16T06:08:20;0.68;;;0.60;;
13386;SDS011;6763;48.524;9.044;2022-10-16T06:10:48;0.52;;;0.52;;
13386;SDS011;6763;48.524;9.044;2022-10-16T06:13:14;0.40;;;0.40;;
13386;SDS011;6763;48.524;9.044;2022-10-16T06:15:40;0.40;;;0.40;;
13386;SDS011;6763;48.524;9.044;2022-10-16T06:18:07;0.40;;;0.40;;
13386;SDS011;6763;48.524;9.044;2022-10-16T06:20:34;0.45;;;0.40;;
13386;SDS011;6763;48.524;9.044;2022-10-16T06:22:59;0.40;;;0.40;;
13386;SDS011;6763;48.524;9.044;2022-10-16T06:25:25;0.40;;;0.40;;
13386;SDS011;6763;48.524;9.044;2022-10-16T06:27:50;0.45;;;0.45;;
13386;SDS011;6763;48.524;9.044;2022-10-16T06:30:16;0.40;;;0.40;;
13386;SDS011;6763;48.524;9.044;2022-10-16T06:32:41;0.30;;;0.30;;
13386;SDS011;6763;48.524;9.044;2022-10-16T06:35:06;0.55;;;0.55;;
13386;SDS011;6763;48.524;9.044;2022-10-16T06:37:32;0.73;;;0.63;;
13386;SDS011;6763;48.524;9.044;2022-10-16T06:39:57;0.40;;;0.40;;
13386;SDS011;6763;48.524;9.044;2022-10-16T06:42:23;0.50;;;0.50;;
13386;SDS011;6763;48.524;9.044;2022-10-16T06:44:48;0.43;;;0.43;;
13386;SDS011;6763;48.524;9.044;2022-10-16T06:47:14;0.88;;;0.60;;
13386;SDS011;6763;48.524;9.044;2022-10-16T06:49:39;0.75;;;0.75;;
13386;SDS011;6763;48.524;9.044;2022-10-16T06:52:05;0.40;;;0.40;;
13386;SDS011;6763;48.524;9.044;2022-10-16T06:54:30;0.50;;;0.45;;
13386;SDS011;6763;48.524;9.044;2022-10-16T06:56:55;0.43;;;0.43;;
13386;SDS011;6763;48.524;9.044;2022-10-16T06:59:21;0.52;;;0.52;;
13386;SDS011;6763;48.524;9.044;2022-10-16T07:01:47;0.50;;;0.50;;
13386;SDS011;6763;48.524;9.044;2022-10-16T07:04:13;0.30;;;0.30;;
13386;SDS011;6763;48.524;9.044;2022-10-16T07:06:38;0.50;;;0.50;;
13386;SDS011;6763;48.524;9.044;2022-10-16T07:09:04;0.60;;;0.60;;
13386;SDS011;6763;48.524;9.044;2022-10-16T07:11:31;0.38;;;0.38;;
13386;SDS011;6763;48.524;9.044;2022-10-16T07:13:57;1.52;;;0.70;;
13386;SDS011;6763;48.524;9.044;2022-10-16T07:16:24;0.50;;;0.50;;
13386;SDS011;6763;48.524;9.044;2022-10-16T07:18:53;0.82;;;0.52;;
13386;SDS011;6763;48.524;9.044;2022-10-16T07:21:23;0.77;;;0.77;;
13386;SDS011;6763;48.524;9.044;2022-10-16T07:23:54;0.40;;;0.40;;
13386;SDS011;6763;48.524;9.044;2022-10-16T07:26:22;1.02;;;0.70;;
13386;SDS011;6763;48.524;9.044;2022-10-16T07:28:51;1.25;;;0.50;;
13386;SDS011;6763;48.524;9.044;2022-10-16T07:31:18;0.40;;;0.40;;
13386;SDS011;6763;48.524;9.044;2022-10-16T07:33:45;0.85;;;0.63;;
13386;SDS011;6763;48.524;9.044;2022-10-16T07:36:12;0.40;;;0.40;;
13386;SDS011;6763;48.524;9.044;2022-10-16T07:38:38;1.20;;;0.55;;
13386;SDS011;6763;48.524;9.044;2022-10-16T07:41:05;0.47;;;0.47;;
13386;SDS011;6763;48.524;9.044;2022-10-16T07:43:32;1.38;;;0.35;;
13386;SDS011;6763;48.524;9.044;2022-10-16T07:45:58;0.28;;;0.28;;
13386;SDS011;6763;48.524;9.044;2022-10-16T07:48:27;0.40;;;0.40;;
13386;SDS011;6763;48.524;9.044;2022-10-16T07:51:00;0.40;;;0.40;;
13386;SDS011;6763;48.524;9.044;2022-10-16T07:53:31;0.50;;;0.50;;
13386;SDS011;6763;48.524;9.044;2022-10-16T07:56:01;0.40;;;0.40;;
13386;SDS011;6763;48.524;9.044;2022-10-16T07:58:27;0.30;;;0.30;;
13386;SDS011;6763;48.524;9.044;2022-10-16T08:00:53;0.50;;;0.50;;
13386;SDS011;6763;48.524;9.044;2022-10-16T08:03:19;0.40;;;0.40;;
13386;SDS011;6763;48.524;9.044;2022-10-16T08:05:44;0.38;;;0.38;;
13386;SDS011;6763;48.524;9.044;2022-10-16T08:08:13;0.40;;;0.40;;
13386;SDS011;6763;48.524;9.044;2022-10-16T08:10:40;0.38;;;0.38;;
13386;SDS011;6763;48.524;9.044;2022-10-16T08:13:05;0.60;;;0.60;;
13386;SDS011;6763;48.524;9.044;2022-10-16T08:15:31;0.40;;;0.40;;
13386;SDS011;6763;48.524;9.044;2022-10-16T08:20:21;0.30;;;0.30;;
13386;SDS011;6763;48.524;9.044;2022-10-16T08:22:46;0.40;;;0.40;;
13386;SDS011;6763;48.524;9.044;2022-10-16T08:25:12;0.40;;;0.40;;
13386;SDS011;6763;48.524;9.044;2022-10-16T08:27:37;0.50;;;0.50;;
13386;SDS011;6763;48.524;9.044;2022-10-16T08:30:02;0.45;;;0.43;;
13386;SDS011;6763;48.524;9.044;2022-10-16T08:32:28;0.35;;;0.35;;
13386;SDS011;6763;48.524;9.044;2022-10-16T08:34:53;0.57;;;0.57;;
13386;SDS011;6763;48.524;9.044;2022-10-16T08:37:19;0.40;;;0.40;;
13386;SDS011;6763;48.524;9.044;2022-10-16T08:39:44;0.40;;;0.40;;
13386;SDS011;6763;48.524;9.044;2022-10-16T08:50:25;0.30;;;0.30;;
13386;SDS011;6763;48.524;9.044;2022-10-16T08:52:55;0.40;;;0.40;;
13386;SDS011;6763;48.524;9.044;2022-10-16T08:55:33;0.70;;;0.55;;
13386;SDS011;6763;48.524;9.044;2022-10-16T08:58:09;0.40;;;0.40;;
13386;SDS011;6763;48.524;9.044;2022-10-16T09:00:39;0.30;;;0.30;;
13386;SDS011;6763;48.524;9.044;2022-10-16T09:03:10;0.40;;;0.40;;
13386;SDS011;6763;48.524;9.044;2022-10-16T09:05:55;0.40;;;0.40;;
13386;SDS011;6763;48.524;9.044;2022-10-16T09:08:45;0.30;;;0.30;;
13386;SDS011;6763;48.524;9.044;2022-10-16T09:11:37;0.32;;;0.32;;
13386;SDS011;6763;48.524;9.044;2022-10-16T09:19:45;0.50;;;0.45;;
13386;SDS011;6763;48.524;9.044;2022-10-16T09:22:16;0.47;;;0.40;;
13386;SDS011;6763;48.524;9.044;2022-10-16T09:24:42;0.70;;;0.60;;
13386;SDS011;6763;48.524;9.044;2022-10-16T09:27:11;0.30;;;0.30;;
13386;SDS011;6763;48.524;9.044;2022-10-16T09:29:39;0.47;;;0.40;;
13386;SDS011;6763;48.524;9.044;2022-10-16T09:32:13;0.30;;;0.30;;
13386;SDS011;6763;48.524;9.044;2022-10-16T09:34:43;0.30;;;0.30;;
13386;SDS011;6763;48.524;9.044;2022-10-16T09:37:14;0.38;;;0.38;;
13386;SDS011;6763;48.524;9.044;2022-10-16T09:39:52;0.93;;;0.45;;
13386;SDS011;6763;48.524;9.044;2022-10-16T09:42:30;0.47;;;0.47;;
13386;SDS011;6763;48.524;9.044;2022-10-16T09:44:57;0.40;;;0.40;;
13386;SDS011;6763;48.524;9.044;2022-10-16T09:47:23;0.63;;;0.40;;
13386;SDS011;6763;48.524;9.044;2022-10-16T09:49:54;0.32;;;0.32;;
13386;SDS011;6763;48.524;9.044;2022-10-16T09:52:25;0.30;;;0.30;;
13386;SDS011;6763;48.524;9.044;2022-10-16T09:54:51;0.20;;;0.20;;
13386;SDS011;6763;48.524;9.044;2022-10-16T09:57:18;0.30;;;0.30;;
13386;SDS011;6763;48.524;9.044;2022-10-16T09:59:51;0.30;;;0.30;;
13386;SDS011;6763;48.524;9.044;2022-10-16T10:02:27;0.35;;;0.35;;
13386;SDS011;6763;48.524;9.044;2022-10-16T10:04:55;0.50;;;0.40;;
13386;SDS011;6763;48.524;9.044;2022-10-16T10:07:25;0.45;;;0.45;;
13386;SDS011;6763;48.524;9.044;2022-10-16T10:09:53;0.50;;;0.50;;
13386;SDS011;6763;48.524;9.044;2022-10-16T10:12:22;0.20;;;0.20;;
13386;SDS011;6763;48.524;9.044;2022-10-16T10:14:50;0.47;;;0.47;;
13386;SDS011;6763;48.524;9.044;2022-10-16T10:17:21;0.30;;;0.30;;
13386;SDS011;6763;48.524;9.044;2022-10-16T10:30:47;0.30;;;0.30;;
13386;SDS011;6763;48.524;9.044;2022-10-16T10:36:07;0.28;;;0.28;;
13386;SDS011;6763;48.524;9.044;2022-10-16T10:53:21;0.45;;;0.35;;
13386;SDS011;6763;48.524;9.044;2022-10-16T11:01:09;0.30;;;0.30;;
13386;SDS011;6763;48.524;9.044;2022-10-16T11:03:51;0.40;;;0.40;;
13386;SDS011;6763;48.524;9.044;2022-10-16T11:06:28;0.30;;;0.30;;
13386;SDS011;6763;48.524;9.044;2022-10-16T11:09:17;0.25;;;0.25;;
13386;SDS011;6763;48.524;9.044;2022-10-16T11:11:59;0.30;;;0.30;;
13386;SDS011;6763;48.524;9.044;2022-10-16T11:25:02;0.43;;;0.40;;
13386;SDS011;6763;48.524;9.044;2022-10-16T11:27:43;0.20;;;0.20;;
13386;SDS011;6763;48.524;9.044;2022-10-16T11:30:39;0.50;;;0.50;;
13386;SDS011;6763;48.524;9.044;2022-10-16T11:33:19;0.20;;;0.20;;
13386;SDS011;6763;48.524;9.044;2022-10-16T11:41:39;0.40;;;0.30;;
13386;SDS011;6763;48.524;9.044;2022-10-16T11:46:40;0.30;;;0.30;;
13386;SDS011;6763;48.524;9.044;2022-10-16T11:49:18;0.25;;;0.25;;
13386;SDS011;6763;48.524;9.044;2022-10-16T11:51:59;0.32;;;0.30;;
13386;SDS011;6763;48.524;9.044;2022-10-16T11:54:52;0.20;;;0.20;;
13386;SDS011;6763;48.524;9.044;2022-10-16T11:57:26;0.38;;;0.38;;
13386;SDS011;6763;48.524;9.044;2022-10-16T11:59:55;0.30;;;0.30;;
13386;SDS011;6763;48.524;9.044;2022-10-16T12:02:38;0.30;;;0.30;;
13386;SDS011;6763;48.524;9.044;2022-10-16T12:08:06;0.40;;;0.40;;
13386;SDS011;6763;48.524;9.044;2022-10-16T12:10:33;0.30;;;0.30;;
13386;SDS011;6763;48.524;9.044;2022-10-16T12:13:02;0.57;;;0.30;;
13386;SDS011;6763;48.524;9.044;2022-10-16T12:15:32;0.40;;;0.40;;
13386;SDS011;6763;48.524;9.044;2022-10-16T12:17:59;0.20;;;0.20;;
13386;SDS011;6763;48.524;9.044;2022-10-16T12:20:29;0.40;;;0.40;;
13386;SDS011;6763;48.524;9.044;2022-10-16T12:28:00;0.30;;;0.30;;
13386;SDS011;6763;48.524;9.044;2022-10-16T12:30:28;0.20;;;0.20;;
13386;SDS011;6763;48.524;9.044;2022-10-16T12:32:57;0.25;;;0.25;;
13386;SDS011;6763;48.524;9.044;2022-10-16T12:35:27;0.45;;;0.45;;
13386;SDS011;6763;48.524;9.044;2022-10-16T12:38:56;0.30;;;0.30;;
13386;SDS011;6763;48.524;9.044;2022-10-16T12:41:00;0.82;;;0.38;;
13386;SDS011;6763;48.524;9.044;2022-10-16T12:48:38;0.28;;;0.28;;
13386;SDS011;6763;48.524;9.044;2022-10-16T12:54:11;0.10;;;0.10;;
13386;SDS011;6763;48.524;9.044;2022-10-16T12:59:32;0.25;;;0.25;;
13386;SDS011;6763;48.524;9.044;2022-10-16T13:08:10;0.50;;;0.50;;
13386;SDS011;6763;48.524;9.044;2022-10-16T13:21:21;0.40;;;0.40;;
13386;SDS011;6763;48.524;9.044;2022-10-16T13:23:58;0.30;;;0.30;;
13386;SDS011;6763;48.524;9.044;2022-10-16T13:29:20;0.68;;;0.40;;
13386;SDS011;6763;48.524;9.044;2022-10-16T13:31:46;0.57;;;0.47;;
13386;SDS011;6763;48.524;9.044;2022-10-16T13:34:13;0.40;;;0.40;;
13386;SDS011;6763;48.524;9.044;2022-10-16T13:36:43;0.35;;;0.35;;
13386;SDS011;6763;48.524;9.044;2022-10-16T13:42:02;0.40;;;0.40;;
13386;SDS011;6763;48.524;9.044;2022-10-16T13:44:40;0.50;;;0.50;;
13386;SDS011;6763;48.524;9.044;2022-10-16T13:47:10;0.40;;;0.40;;
13386;SDS011;6763;48.524;9.044;2022-10-16T13:49:41;0.40;;;0.40;;
13386;SDS011;6763;48.524;9.044;2022-10-16T13:52:15;2.17;;;0.50;;
13386;SDS011;6763;48.524;9.044;2022-10-16T13:54:42;1.58;;;0.40;;
13386;SDS011;6763;48.524;9.044;2022-10-16T13:57:08;0.47;;;0.47;;
13386;SDS011;6763;48.524;9.044;2022-10-16T13:59:34;0.40;;;0.40;;
13386;SDS011;6763;48.524;9.044;2022-10-16T14:02:05;0.38;;;0.38;;
13386;SDS011;6763;48.524;9.044;2022-10-16T14:04:53;0.65;;;0.50;;
13386;SDS011;6763;48.524;9.044;2022-10-16T14:07:22;0.75;;;0.50;;
13386;SDS011;6763;48.524;9.044;2022-10-16T14:09:53;0.38;;;0.38;;
13386;SDS011;6763;48.524;9.044;2022-10-16T14:12:19;0.68;;;0.68;;
13386;SDS011;6763;48.524;9.044;2022-10-16T14:14:47;1.88;;;0.70;;
13386;SDS011;6763;48.524;9.044;2022-10-16T14:17:18;0.30;;;0.30;;
13386;SDS011;6763;48.524;9.044;2022-10-16T14:19:51;0.40;;;0.40;;
13386;SDS011;6763;48.524;9.044;2022-10-16T14:24:54;0.40;;;0.40;;
13386;SDS011;6763;48.524;9.044;2022-10-16T14:27:23;0.50;;;0.50;;
13386;SDS011;6763;48.524;9.044;2022-10-16T14:32:40;0.40;;;0.40;;
13386;SDS011;6763;48.524;9.044;2022-10-16T14:35:22;0.30;;;0.30;;
13386;SDS011;6763;48.524;9.044;2022-10-16T14:37:54;0.25;;;0.22;;
13386;SDS011;6763;48.524;9.044;2022-10-16T14:40:22;0.40;;;0.40;;
13386;SDS011;6763;48.524;9.044;2022-10-16T14:42:49;0.32;;;0.30;;
13386;SDS011;6763;48.524;9.044;2022-10-16T14:45:20;0.40;;;0.40;;
13386;SDS011;6763;48.524;9.044;2022-10-16T14:47:49;0.57;;;0.57;;
13386;SDS011;6763;48.524;9.044;2022-10-16T14:50:17;0.45;;;0.45;;
13386;SDS011;6763;48.524;9.044;2022-10-16T14:52:43;0.52;;;0.40;;
13386;SDS011;6763;48.524;9.044;2022-10-16T14:55:09;0.40;;;0.40;;
13386;SDS011;6763;48.524;9.044;2022-10-16T14:57:35;0.40;;;0.40;;
13386;SDS011;6763;48.524;9.044;2022-10-16T15:00:03;0.30;;;0.30;;
13386;SDS011;6763;48.524;9.044;2022-10-16T15:02:38;0.50;;;0.50;;
13386;SDS011;6763;48.524;9.044;2022-10-16T15:05:12;0.90;;;0.50;;
13386;SDS011;6763;48.524;9.044;2022-10-16T15:07:40;0.50;;;0.50;;
13386;SDS011;6763;48.524;9.044;2022-10-16T15:10:06;0.30;;;0.30;;
13386;SDS011;6763;48.524;9.044;2022-10-16T15:12:31;0.40;;;0.40;;
13386;SDS011;6763;48.524;9.044;2022-10-16T15:14:56;0.40;;;0.40;;
13386;SDS011;6763;48.524;9.044;2022-10-16T15:17:22;0.40;;;0.40;;
13386;SDS011;6763;48.524;9.044;2022-10-16T15:19:47;0.32;;;0.32;;
13386;SDS011;6763;48.524;9.044;2022-10-16T15:22:13;0.60;;;0.60;;
13386;SDS011;6763;48.524;9.044;2022-10-16T15:24:38;0.50;;;0.50;;
13386;SDS011;6763;48.524;9.044;2022-10-16T15:27:04;0.35;;;0.35;;
13386;SDS011;6763;48.524;9.044;2022-10-16T15:29:29;0.50;;;0.40;;
13386;SDS011;6763;48.524;9.044;2022-10-16T15:31:54;0.82;;;0.57;;
13386;SDS011;6763;48.524;9.044;2022-10-16T15:34:20;0.40;;;0.40;;
13386;SDS011;6763;48.524;9.044;2022-10-16T15:36:45;0.60;;;0.60;;
13386;SDS011;6763;48.524;9.044;2022-10-16T15:39:12;0.43;;;0.43;;
13386;SDS011;6763;48.524;9.044;2022-10-16T15:41:42;3.70;;;0.40;;
13386;SDS011;6763;48.524;9.044;2022-10-16T15:44:08;0.50;;;0.50;;
13386;SDS011;6763;48.524;9.044;2022-10-16T15:46:34;0.50;;;0.50;;
13386;SDS011;6763;48.524;9.044;2022-10-16T15:48:59;0.40;;;0.40;;
13386;SDS011;6763;48.524;9.044;2022-10-16T15:51:25;0.50;;;0.47;;
13386;SDS011;6763;48.524;9.044;2022-10-16T15:53:57;0.47;;;0.38;;
13386;SDS011;6763;48.524;9.044;2022-10-16T15:56:24;0.52;;;0.52;;
13386;SDS011;6763;48.524;9.044;2022-10-16T15:58:50;0.60;;;0.40;;
13386;SDS011;6763;48.524;9.044;2022-10-16T16:01:16;0.43;;;0.43;;
13386;SDS011;6763;48.524;9.044;2022-10-16T16:03:42;0.80;;;0.45;;
13386;SDS011;6763;48.524;9.044;2022-10-16T16:06:08;0.50;;;0.50;;
13386;SDS011;6763;48.524;9.044;2022-10-16T16:08:36;1.05;;;0.68;;
13386;SDS011;6763;48.524;9.044;2022-10-16T16:11:03;0.50;;;0.50;;
13386;SDS011;6763;48.524;9.044;2022-10-16T16:13:31;0.40;;;0.40;;
13386;SDS011;6763;48.524;9.044;2022-10-16T16:15:56;0.52;;;0.50;;
13386;SDS011;6763;48.524;9.044;2022-10-16T16:18:22;0.70;;;0.70;;
13386;SDS011;6763;48.524;9.044;2022-10-16T16:20:48;0.55;;;0.55;;
13386;SDS011;6763;48.524;9.044;2022-10-16T16:23:14;0.60;;;0.60;;
13386;SDS011;6763;48.524;9.044;2022-10-16T16:25:40;0.50;;;0.50;;
13386;SDS011;6763;48.524;9.044;2022-10-16T16:28:05;0.40;;;0.40;;
13386;SDS011;6763;48.524;9.044;2022-10-16T16:30:32;0.50;;;0.50;;
13386;SDS011;6763;48.524;9.044;2022-10-16T16:32:57;1.02;;;0.60;;
13386;SDS011;6763;48.524;9.044;2022-10-16T16:35:23;0.50;;;0.50;;
13386;SDS011;6763;48.524;9.044;2022-10-16T16:37:48;0.88;;;0.60;;
13386;SDS011;6763;48.524;9.044;2022-10-16T16:40:13;0.60;;;0.60;;
13386;SDS011;6763;48.524;9.044;2022-10-16T16:42:39;1.67;;;0.80;;
13386;SDS011;6763;48.524;9.044;2022-10-16T16:45:04;2.45;;;1.00;;
13386;SDS011;6763;48.524;9.044;2022-10-16T16:47:30;0.90;;;0.90;;
13386;SDS011;6763;48.524;9.044;2022-10-16T16:49:55;0.70;;;0.60;;
13386;SDS011;6763;48.524;9.044;2022-10-16T16:52:21;0.65;;;0.65;;
13386;SDS011;6763;48.524;9.044;2022-10-16T16:54:47;0.75;;;0.70;;
13386;SDS011;6763;48.524;9.044;2022-10-16T16:57:17;1.83;;;1.65;;
13386;SDS011;6763;48.524;9.044;2022-10-16T16:59:45;1.30;;;1.20;;
13386;SDS011;6763;48.524;9.044;2022-10-16T17:02:11;1.33;;;1.20;;
13386;SDS011;6763;48.524;9.044;2022-10-16T17:04:36;1.88;;;1.30;;
13386;SDS011;6763;48.524;9.044;2022-10-16T17:07:02;2.20;;;1.58;;
13386;SDS011;6763;48.524;9.044;2022-10-16T17:09:27;2.22;;;1.60;;
13386;SDS011;6763;48.524;9.044;2022-10-16T17:11:52;18.20;;;6.97;;
13386;SDS011;6763;48.524;9.044;2022-10-16T17:14:18;9.82;;;5.90;;
13386;SDS011;6763;48.524;9.044;2022-10-16T17:16:43;4.30;;;2.60;;
13386;SDS011;6763;48.524;9.044;2022-10-16T17:19:14;2.33;;;1.80;;
13386;SDS011;6763;48.524;9.044;2022-10-16T17:21:41;3.42;;;1.50;;
13386;SDS011;6763;48.524;9.044;2022-10-16T17:24:07;2.28;;;1.33;;